createdAt,value
2022-12-23T00:00:09.061Z,96.46
2022-12-23T00:02:35.587Z,96.24
2022-12-23T00:05:02.085Z,96.13
2022-12-23T00:07:28.368Z,96.24
2022-12-23T00:09:54.680Z,96.02
2022-12-23T00:12:39.628Z,96.31
2022-12-23T00:15:06.584Z,96.48
2022-12-23T00:17:34.565Z,96.34
2022-12-23T00:20:01.471Z,96.23
2022-12-23T00:22:46.809Z,96.33
2022-12-23T00:25:13.366Z,96.41
2022-12-23T00:27:40.149Z,96.34
2022-12-23T00:30:09.787Z,96.43
2022-12-23T00:32:36.335Z,96.45
2022-12-23T00:35:02.613Z,96.37
2022-12-23T00:37:30.912Z,96.53
2022-12-23T00:40:15.844Z,96.66
2022-12-23T00:42:53.842Z,96.58
2022-12-23T00:45:21.529Z,96.56
2022-12-23T00:48:07.226Z,96.47
2022-12-23T00:50:36.821Z,96.46
2022-12-23T00:53:04.107Z,96.50
2022-12-23T00:55:30.804Z,96.67
2022-12-23T00:57:57.402Z,96.70
2022-12-23T01:00:43.863Z,96.16
2022-12-23T01:03:33.442Z,96.13
2022-12-23T01:06:01.637Z,95.56
2022-12-23T01:08:28.753Z,95.66
2022-12-23T01:10:55.735Z,95.04
2022-12-23T01:13:22.068Z,94.93
2022-12-23T01:15:48.392Z,94.48
2022-12-23T01:18:14.746Z,94.38
2022-12-23T01:20:41.276Z,94.81
2022-12-23T01:23:07.654Z,94.69
2022-12-23T01:25:33.963Z,94.84
2022-12-23T01:28:00.230Z,94.66
2022-12-23T01:30:26.702Z,94.63
2022-12-23T01:32:53.028Z,94.50
2022-12-23T01:35:19.293Z,94.91
2022-12-23T01:37:45.616Z,95.17
2022-12-23T01:40:11.971Z,95.24
2022-12-23T01:42:44.328Z,95.44
2022-12-23T01:45:24.853Z,95.51
2022-12-23T01:48:14.044Z,95.95
2022-12-23T01:50:46.399Z,96.18
2022-12-23T01:53:21.759Z,96.59
2022-12-23T01:55:54.249Z,96.62
2022-12-23T01:58:29.647Z,96.44
2022-12-23T02:01:16.684Z,96.66
2022-12-23T02:03:45.296Z,96.48
2022-12-23T02:06:53.501Z,96.56
2022-12-23T02:09:24.420Z,96.60
2022-12-23T02:12:09.150Z,96.94
2022-12-23T02:15:22.066Z,96.55
2022-12-23T02:18:08.838Z,96.47
2022-12-23T02:21:08.538Z,96.65
2022-12-23T02:23:56.509Z,96.70
2022-12-23T02:26:22.763Z,96.68
2022-12-23T02:29:23.004Z,96.48
2022-12-23T02:32:03.407Z,96.79
2022-12-23T02:34:54.347Z,96.40
2022-12-23T02:37:36.727Z,96.62
2022-12-23T02:40:11.236Z,96.64
2022-12-23T02:42:46.672Z,96.48
2022-12-23T02:45:29.596Z,96.46
2022-12-23T02:48:17.204Z,96.48
2022-12-23T02:50:45.607Z,96.53
2022-12-23T02:53:20.047Z,96.45
2022-12-23T02:55:48.963Z,96.25
2022-12-23T02:58:18.780Z,95.96
2022-12-23T03:00:46.844Z,96.17
2022-12-23T03:03:13.272Z,96.02
2022-12-23T03:05:43.992Z,96.18
2022-12-23T03:08:18.591Z,96.23
2022-12-23T03:11:01.661Z,95.88
2022-12-23T03:13:39.817Z,96.01
2022-12-23T03:16:20.624Z,95.98
2022-12-23T03:19:10.177Z,96.07
2022-12-23T03:21:59.618Z,96.13
2022-12-23T03:24:44.667Z,96.34
2022-12-23T03:27:36.027Z,96.00
2022-12-23T03:30:15.962Z,96.38
2022-12-23T03:33:25.872Z,96.00
2022-12-23T03:35:57.749Z,96.16
2022-12-23T03:38:26.035Z,96.34
2022-12-23T03:40:57.945Z,96.35
2022-12-23T03:43:33.064Z,96.49
2022-12-23T03:46:03.543Z,96.43
2022-12-23T03:48:39.376Z,96.38
2022-12-23T03:51:14.732Z,96.60
2022-12-23T03:53:47.138Z,96.42
2022-12-23T03:56:19.143Z,96.37
2022-12-23T03:58:57.884Z,96.80
2022-12-23T04:01:37.256Z,96.57
2022-12-23T04:04:11.782Z,96.48
2022-12-23T04:07:03.461Z,96.69
2022-12-23T04:09:29.826Z,96.64
2022-12-23T04:11:58.139Z,96.55
2022-12-23T04:14:24.521Z,95.96
2022-12-23T04:16:54.989Z,96.77
2022-12-23T04:19:21.428Z,96.40
2022-12-23T04:21:47.800Z,96.77
2022-12-23T04:24:14.176Z,96.44
2022-12-23T04:26:40.457Z,96.44
2022-12-23T04:29:06.742Z,96.42
2022-12-23T04:31:33.047Z,96.44
2022-12-23T04:33:59.436Z,96.48
2022-12-23T04:36:25.740Z,96.28
2022-12-23T04:38:51.997Z,96.20
2022-12-23T04:41:18.351Z,96.57
2022-12-23T04:43:49.305Z,96.89
2022-12-23T04:46:19.017Z,97.24
2022-12-23T04:48:45.398Z,97.42
2022-12-23T04:51:11.734Z,97.15
2022-12-23T04:53:38.287Z,96.40
2022-12-23T04:56:04.822Z,96.39
2022-12-23T04:58:31.138Z,96.39
2022-12-23T05:01:09.011Z,96.48
2022-12-23T05:03:35.862Z,96.56
2022-12-23T05:06:02.298Z,96.87
2022-12-23T05:08:29.054Z,97.29
2022-12-23T05:10:55.715Z,98.01
2022-12-23T05:13:22.494Z,98.26
2022-12-23T05:15:50.688Z,98.51
2022-12-23T05:18:17.416Z,98.79
2022-12-23T05:20:50.689Z,98.43
2022-12-23T05:23:18.101Z,97.76
2022-12-23T05:25:51.719Z,97.93
2022-12-23T05:28:18.119Z,97.81
2022-12-23T05:30:44.464Z,96.98
2022-12-23T05:33:10.802Z,96.38
2022-12-23T05:35:37.088Z,96.60
2022-12-23T05:38:03.917Z,96.46
2022-12-23T05:40:31.973Z,96.71
2022-12-23T05:42:59.306Z,96.85
2022-12-23T05:45:25.765Z,97.26
2022-12-23T05:47:52.219Z,97.42
2022-12-23T05:50:18.501Z,97.62
2022-12-23T05:52:44.802Z,97.65
2022-12-23T05:55:11.095Z,98.13
2022-12-23T05:57:37.435Z,98.17
2022-12-23T06:00:04.477Z,98.67
2022-12-23T06:02:31.101Z,98.14
2022-12-23T06:04:57.598Z,97.42
2022-12-23T06:07:23.985Z,97.49
2022-12-23T06:09:50.254Z,96.98
2022-12-23T06:12:16.686Z,96.99
2022-12-23T06:14:42.965Z,97.10
2022-12-23T06:17:09.399Z,97.83
2022-12-23T06:19:35.774Z,98.03
2022-12-23T06:22:02.076Z,98.41
2022-12-23T06:24:28.402Z,98.98
2022-12-23T06:26:57.226Z,99.00
2022-12-23T06:29:24.213Z,98.55
2022-12-23T06:31:50.555Z,98.58
2022-12-23T06:34:16.970Z,97.97
2022-12-23T06:36:43.229Z,97.60
2022-12-23T06:39:10.624Z,97.77
2022-12-23T06:41:36.906Z,98.20
2022-12-23T06:44:03.484Z,98.16
2022-12-23T06:46:29.938Z,98.67
2022-12-23T06:48:56.283Z,98.71
2022-12-23T06:51:22.699Z,98.28
2022-12-23T06:53:49.267Z,98.09
2022-12-23T06:56:15.698Z,98.32
2022-12-23T06:58:42.055Z,98.17
2022-12-23T07:01:10.122Z,98.07
2022-12-23T07:03:36.726Z,98.22
2022-12-23T07:06:03.461Z,98.31
2022-12-23T07:08:29.797Z,97.91
2022-12-23T07:11:03.423Z,97.59
2022-12-23T07:13:30.736Z,97.75
2022-12-23T07:15:57.023Z,97.74
2022-12-23T07:18:23.631Z,98.17
2022-12-23T07:20:50.524Z,97.46
2022-12-23T07:23:16.918Z,97.03
2022-12-23T07:25:43.314Z,96.40
2022-12-23T07:28:09.609Z,95.91
2022-12-23T07:30:36.206Z,96.08
2022-12-23T07:33:02.597Z,95.90
2022-12-23T07:35:28.908Z,96.47
2022-12-23T07:37:56.103Z,96.52
2022-12-23T07:40:23.206Z,96.97
2022-12-23T07:42:50.582Z,97.06
2022-12-23T07:45:16.916Z,97.17
2022-12-23T07:47:43.347Z,97.35
2022-12-23T07:50:10.018Z,97.20
2022-12-23T07:52:36.322Z,96.93
2022-12-23T07:55:02.654Z,96.89
2022-12-23T07:57:29.323Z,96.95
2022-12-23T07:59:55.645Z,97.14
2022-12-23T08:02:25.134Z,97.28
2022-12-23T08:04:52.068Z,97.46
2022-12-23T08:07:18.424Z,97.86
2022-12-23T08:09:44.725Z,98.06
2022-12-23T08:12:11.096Z,98.15
2022-12-23T08:14:37.432Z,98.64
2022-12-23T08:17:03.825Z,98.45
2022-12-23T08:19:30.186Z,98.23
2022-12-23T08:21:56.563Z,98.47
2022-12-23T08:24:22.836Z,98.25
2022-12-23T08:26:49.128Z,97.99
2022-12-23T08:29:15.604Z,98.28
2022-12-23T08:31:41.963Z,98.27
2022-12-23T08:34:08.281Z,98.34
2022-12-23T08:36:36.243Z,98.65
2022-12-23T08:39:09.290Z,98.54
2022-12-23T08:41:38.925Z,98.78
2022-12-23T08:44:05.375Z,98.73
2022-12-23T08:46:32.407Z,98.78
2022-12-23T08:48:58.891Z,98.63
2022-12-23T08:51:26.183Z,98.39
2022-12-23T08:53:59.831Z,98.62
2022-12-23T08:56:29.772Z,98.64
2022-12-23T08:58:56.244Z,97.86
2022-12-23T09:01:25.776Z,97.47
2022-12-23T09:03:52.702Z,96.70
2022-12-23T09:06:31.991Z,95.29
2022-12-23T09:08:58.793Z,96.02
2022-12-23T09:11:28.002Z,96.35
2022-12-23T09:13:54.742Z,96.77
2022-12-23T09:16:21.542Z,96.20
2022-12-23T09:18:47.933Z,96.46
2022-12-23T09:21:17.841Z,96.77
2022-12-23T09:23:44.145Z,96.46
2022-12-23T09:26:10.979Z,96.07
2022-12-23T09:28:37.646Z,93.80
2022-12-23T09:31:11.817Z,93.55
2022-12-23T09:33:38.900Z,93.76
2022-12-23T09:36:06.289Z,92.31
2022-12-23T09:38:33.106Z,90.68
2022-12-23T09:41:34.808Z,90.18
2022-12-23T09:44:19.661Z,90.63
2022-12-23T09:46:56.696Z,89.94
2022-12-23T09:49:23.848Z,90.63
2022-12-23T09:51:53.994Z,90.48
2022-12-23T09:54:24.815Z,90.62
2022-12-23T09:56:54.947Z,90.54
2022-12-23T09:59:46.248Z,90.44
2022-12-23T10:02:28.378Z,90.27
2022-12-23T10:05:21.733Z,90.75
2022-12-23T10:08:23.476Z,90.57
2022-12-23T10:10:56.506Z,90.88
2022-12-23T10:13:39.796Z,91.26
2022-12-23T10:16:15.546Z,91.14
2022-12-23T10:18:51.966Z,91.32
2022-12-23T10:21:31.576Z,90.67
2022-12-23T10:24:05.124Z,90.12
2022-12-23T10:26:36.598Z,90.19
2022-12-23T10:29:19.212Z,90.40
2022-12-23T10:32:04.387Z,90.76
2022-12-23T10:34:56.837Z,91.05
2022-12-23T10:37:45.003Z,91.55
2022-12-23T10:40:25.619Z,92.25
2022-12-23T10:43:16.964Z,92.29
2022-12-23T10:46:22.551Z,92.39
2022-12-23T10:48:59.923Z,92.62
2022-12-23T10:51:35.857Z,92.72
2022-12-23T10:54:14.486Z,92.79
2022-12-23T10:56:40.961Z,92.05
2022-12-23T10:59:14.043Z,91.62
2022-12-23T11:01:43.318Z,91.38
2022-12-23T11:04:25.316Z,91.28
2022-12-23T11:07:18.096Z,91.97
2022-12-23T11:09:44.268Z,92.21
2022-12-23T11:12:12.000Z,92.20
2022-12-23T11:14:57.742Z,91.82
2022-12-23T11:17:26.544Z,91.99
2022-12-23T11:20:15.738Z,91.99
2022-12-23T11:22:54.269Z,92.12
2022-12-23T11:25:29.614Z,92.31
2022-12-23T11:28:21.994Z,92.58
2022-12-23T11:31:05.548Z,92.92
2022-12-23T11:33:35.319Z,93.30
2022-12-23T11:36:07.553Z,93.32
2022-12-23T11:38:36.228Z,93.44
2022-12-23T11:41:04.572Z,93.78
2022-12-23T11:43:32.355Z,94.18
2022-12-23T11:46:17.688Z,94.35
2022-12-23T11:48:44.018Z,94.40
2022-12-23T11:51:10.403Z,94.70
2022-12-23T11:53:36.777Z,94.40
2022-12-23T11:56:05.139Z,94.61
2022-12-23T11:58:40.510Z,94.73
2022-12-23T12:01:16.543Z,94.41
2022-12-23T12:04:06.119Z,93.67
2022-12-23T12:06:33.367Z,93.28
2022-12-23T12:09:02.996Z,92.26
2022-12-23T12:11:36.664Z,92.78
2022-12-23T12:14:08.413Z,92.32
2022-12-23T12:16:52.879Z,92.69
2022-12-23T12:19:28.476Z,93.02
2022-12-23T12:22:00.501Z,93.17
2022-12-23T12:24:37.667Z,93.52
2022-12-23T12:27:06.872Z,93.66
2022-12-23T12:29:56.782Z,93.87
2022-12-23T12:32:39.911Z,94.03
2022-12-23T12:35:14.878Z,94.10
2022-12-23T12:37:48.678Z,94.53
2022-12-23T12:40:26.200Z,94.58
2022-12-23T12:42:59.828Z,94.64
2022-12-23T12:45:39.553Z,94.86
2022-12-23T12:48:28.011Z,94.85
2022-12-23T12:51:08.656Z,94.98
2022-12-23T12:53:37.536Z,94.93
2022-12-23T12:56:15.092Z,95.10
2022-12-23T12:58:44.464Z,94.90
2022-12-23T13:01:17.150Z,94.83
2022-12-23T13:04:19.971Z,95.06
2022-12-23T13:07:11.738Z,94.75
2022-12-23T13:09:56.705Z,94.82
2022-12-23T13:12:40.862Z,94.92
2022-12-23T13:15:10.646Z,95.28
2022-12-23T13:18:04.439Z,95.46
2022-12-23T13:20:30.773Z,95.02
2022-12-23T13:23:34.313Z,95.00
2022-12-23T13:26:01.445Z,95.09
2022-12-23T13:28:51.218Z,95.41
2022-12-23T13:31:43.748Z,95.71
2022-12-23T13:34:23.844Z,95.98
2022-12-23T13:37:28.487Z,95.98
2022-12-23T13:40:11.795Z,95.91
2022-12-23T13:42:44.802Z,96.34
2022-12-23T13:45:16.424Z,96.43
2022-12-23T13:48:04.391Z,96.48
2022-12-23T13:50:43.131Z,96.02
2022-12-23T13:53:21.148Z,95.94
2022-12-23T13:56:16.391Z,95.91
2022-12-23T13:58:47.965Z,96.09
2022-12-23T14:01:14.438Z,96.21
2022-12-23T14:03:40.905Z,96.46
2022-12-23T14:06:20.078Z,96.53
2022-12-23T14:08:47.601Z,96.15
2022-12-23T14:11:31.970Z,95.28
2022-12-23T14:14:01.122Z,95.48
2022-12-23T14:17:04.936Z,95.09
2022-12-23T14:19:42.254Z,95.66
2022-12-23T14:22:46.298Z,95.98
2022-12-23T14:25:34.492Z,95.80
2022-12-23T14:28:24.860Z,95.48
2022-12-23T14:30:51.342Z,95.46
2022-12-23T14:33:30.206Z,95.29
2022-12-23T14:36:25.494Z,96.14
2022-12-23T14:39:14.894Z,95.79
2022-12-23T14:41:57.585Z,95.69
2022-12-23T14:44:35.660Z,95.85
2022-12-23T14:47:03.624Z,95.65
2022-12-23T14:49:43.927Z,95.63
2022-12-23T14:52:38.033Z,95.31
2022-12-23T14:55:32.589Z,95.61
2022-12-23T14:58:13.056Z,95.84
2022-12-23T15:00:49.281Z,96.00
2022-12-23T15:03:17.483Z,95.80
2022-12-23T15:05:44.180Z,96.08
2022-12-23T15:08:38.942Z,96.13
2022-12-23T15:11:09.104Z,96.49
2022-12-23T15:13:37.045Z,96.81
2022-12-23T15:16:03.392Z,96.77
2022-12-23T15:18:29.770Z,97.08
2022-12-23T15:21:01.565Z,97.48
2022-12-23T15:23:28.098Z,96.94
2022-12-23T15:26:00.195Z,97.19
2022-12-23T15:28:41.143Z,96.90
2022-12-23T15:31:22.963Z,97.08
2022-12-23T15:34:02.958Z,97.13
2022-12-23T15:36:36.040Z,97.53
2022-12-23T15:39:09.798Z,97.50
2022-12-23T15:41:46.783Z,97.50
2022-12-23T15:44:18.573Z,97.71
2022-12-23T15:46:44.966Z,98.06
2022-12-23T15:49:12.077Z,98.15
2022-12-23T15:52:13.736Z,98.04
2022-12-23T15:54:53.554Z,97.51
2022-12-23T15:57:22.556Z,97.76
2022-12-23T15:59:49.405Z,98.08
2022-12-23T16:05:32.103Z,97.92
2022-12-23T16:08:28.584Z,98.13
2022-12-23T16:11:10.481Z,97.99
2022-12-23T16:13:41.495Z,97.70
2022-12-23T16:16:18.588Z,97.78
2022-12-23T16:18:47.612Z,97.87
2022-12-23T16:21:15.000Z,97.74
2022-12-23T16:23:50.386Z,97.90
2022-12-23T16:26:16.757Z,97.87
2022-12-23T16:28:46.451Z,97.76
2022-12-23T16:31:16.912Z,97.87
2022-12-23T16:33:59.700Z,98.02
2022-12-23T16:36:26.037Z,98.15
2022-12-23T16:39:08.783Z,97.89
2022-12-23T16:41:35.602Z,97.99
2022-12-23T16:44:02.830Z,97.92
2022-12-23T16:46:36.091Z,97.42
2022-12-23T16:49:05.267Z,96.16
2022-12-23T16:51:33.840Z,96.65
2022-12-23T16:54:01.025Z,96.83
2022-12-23T16:56:30.110Z,97.19
2022-12-23T16:58:56.387Z,97.41
2022-12-23T17:01:31.998Z,97.28
2022-12-23T17:03:58.372Z,97.69
2022-12-23T17:06:25.895Z,97.57
2022-12-23T17:08:53.185Z,97.43
2022-12-23T17:11:25.603Z,97.60
2022-12-23T17:13:54.362Z,97.27
2022-12-23T17:16:25.594Z,97.55
2022-12-23T17:18:53.088Z,97.27
2022-12-23T17:21:28.434Z,96.93
2022-12-23T17:24:03.014Z,97.12
2022-12-23T17:26:29.421Z,97.08
2022-12-23T17:28:55.695Z,97.35
2022-12-23T17:31:26.909Z,97.54
2022-12-23T17:33:54.070Z,97.50
2022-12-23T17:36:20.636Z,97.39
2022-12-23T17:38:47.053Z,97.20
2022-12-23T17:41:30.806Z,97.58
2022-12-23T17:43:57.969Z,97.73
2022-12-23T17:46:25.322Z,97.72
2022-12-23T17:48:52.580Z,98.37
2022-12-23T17:51:21.965Z,98.01
2022-12-23T17:53:55.111Z,98.02
2022-12-23T17:56:24.491Z,98.02
2022-12-23T17:58:51.057Z,97.62
2022-12-23T18:01:20.790Z,97.63
2022-12-23T18:03:47.425Z,97.64
2022-12-23T18:06:15.634Z,97.64
2022-12-23T18:08:42.262Z,97.71
2022-12-23T18:11:16.234Z,97.80
2022-12-23T18:13:42.641Z,98.17
2022-12-23T18:16:11.954Z,98.50
2022-12-23T18:18:46.130Z,98.44
2022-12-23T18:21:24.485Z,98.58
2022-12-23T18:23:53.458Z,98.72
2022-12-23T18:26:19.919Z,98.72
2022-12-23T18:28:46.304Z,98.61
2022-12-23T18:31:21.556Z,97.67
2022-12-23T18:33:47.923Z,97.88
2022-12-23T18:36:30.368Z,97.64
2022-12-23T18:38:57.255Z,96.98
2022-12-23T18:41:25.444Z,96.56
2022-12-23T18:43:52.569Z,93.54
2022-12-23T18:46:20.017Z,94.25
2022-12-23T18:48:46.574Z,93.24
2022-12-23T18:51:14.969Z,92.22
2022-12-23T18:53:43.381Z,90.34
2022-12-23T18:56:13.964Z,88.56
2022-12-23T18:58:40.392Z,88.63
2022-12-23T19:01:13.653Z,87.39
2022-12-23T19:03:40.487Z,88.32
2022-12-23T19:06:08.580Z,85.89
2022-12-23T19:08:36.942Z,84.85
2022-12-23T19:11:12.682Z,85.65
2022-12-23T19:13:39.223Z,86.59
2022-12-23T19:16:05.686Z,87.29
2022-12-23T19:18:32.046Z,88.20
2022-12-23T19:21:02.641Z,88.93
2022-12-23T19:23:28.925Z,89.27
2022-12-23T19:25:55.727Z,88.89
2022-12-23T19:28:23.600Z,89.11
2022-12-23T19:30:50.435Z,88.15
2022-12-23T19:33:16.792Z,87.51
2022-12-23T19:35:43.987Z,87.27
2022-12-23T19:38:12.101Z,87.79
2022-12-23T19:40:38.446Z,87.92
2022-12-23T19:43:04.856Z,86.57
2022-12-23T19:45:37.287Z,86.08
2022-12-23T19:48:03.867Z,84.20
2022-12-23T19:50:30.231Z,84.15
2022-12-23T19:52:57.238Z,84.75
2022-12-23T19:55:23.712Z,85.06
2022-12-23T19:57:50.086Z,84.07
2022-12-23T20:00:16.660Z,84.21
2022-12-23T20:02:43.061Z,84.64
2022-12-23T20:05:10.036Z,84.57
2022-12-23T20:07:36.911Z,83.89
2022-12-23T20:10:04.449Z,83.84
2022-12-23T20:12:30.799Z,83.55
2022-12-23T20:14:57.085Z,82.17
2022-12-23T20:17:23.347Z,81.82
2022-12-23T20:19:49.588Z,83.02
2022-12-23T20:22:16.961Z,83.43
2022-12-23T20:24:43.429Z,83.55
2022-12-23T20:27:12.071Z,82.19
2022-12-23T20:29:39.656Z,82.88
2022-12-23T20:32:06.044Z,83.78
2022-12-23T20:34:38.637Z,83.35
2022-12-23T20:37:06.395Z,82.41
2022-12-23T20:39:32.695Z,82.90
2022-12-23T20:41:58.998Z,80.73
2022-12-23T20:44:34.983Z,81.77
2022-12-23T20:47:02.469Z,82.05
2022-12-23T20:49:29.054Z,79.87
2022-12-23T20:51:55.368Z,77.07
2022-12-23T20:54:26.340Z,78.58
2022-12-23T20:56:56.284Z,77.49
2022-12-23T20:59:22.581Z,78.47
2022-12-23T21:01:48.999Z,78.03
2022-12-23T21:04:16.689Z,78.40
2022-12-23T21:06:44.221Z,76.93
2022-12-23T21:09:12.547Z,78.48
2022-12-23T21:11:42.880Z,79.26
2022-12-23T21:14:09.492Z,77.36
2022-12-23T21:16:37.338Z,78.45
2022-12-23T21:19:05.948Z,78.15
2022-12-23T21:21:32.364Z,77.43
2022-12-23T21:24:01.130Z,78.82
2022-12-23T21:26:29.875Z,79.28
2022-12-23T21:28:59.297Z,77.61
2022-12-23T21:31:27.417Z,78.17
2022-12-23T21:33:54.580Z,78.08
2022-12-23T21:36:24.020Z,79.64
2022-12-23T21:38:51.152Z,77.71
2022-12-23T21:41:22.068Z,79.73
2022-12-23T21:43:49.232Z,79.57
2022-12-23T21:46:18.175Z,79.69
2022-12-23T21:48:45.096Z,79.63
2022-12-23T21:51:23.303Z,81.27
2022-12-23T21:53:52.196Z,81.59
2022-12-23T21:56:25.707Z,82.29
2022-12-23T21:59:00.516Z,82.44
2022-12-23T22:01:27.796Z,81.41
2022-12-23T22:03:55.080Z,80.48
2022-12-23T22:06:24.435Z,80.42
2022-12-23T22:08:52.672Z,80.05
2022-12-23T22:11:22.126Z,80.25
2022-12-23T22:13:49.008Z,80.13
2022-12-23T22:16:21.369Z,80.00
2022-12-23T22:18:48.845Z,80.05
2022-12-23T22:21:18.981Z,79.16
2022-12-23T22:23:48.744Z,76.78
2022-12-23T22:26:24.697Z,76.84
2022-12-23T22:28:52.664Z,76.85
2022-12-23T22:32:00.228Z,77.04
2022-12-23T22:34:26.626Z,76.38
2022-12-23T22:36:52.963Z,76.05
2022-12-23T22:39:21.871Z,76.86
2022-12-23T22:41:50.652Z,75.54
2022-12-23T22:44:17.715Z,76.14
2022-12-23T22:46:44.589Z,76.78
2022-12-23T22:49:15.047Z,77.22
2022-12-23T22:51:42.064Z,76.14
2022-12-23T22:54:10.835Z,76.00
2022-12-23T22:56:37.602Z,76.46
2022-12-23T22:59:06.581Z,76.52
2022-12-23T23:01:34.747Z,76.57
2022-12-23T23:04:02.923Z,76.48
2022-12-23T23:06:32.243Z,76.89
2022-12-23T23:08:59.525Z,76.98
2022-12-23T23:11:27.124Z,76.62
2022-12-23T23:13:54.026Z,76.05
2022-12-23T23:16:20.624Z,76.20
2022-12-23T23:18:47.003Z,76.15
2022-12-23T23:21:14.365Z,75.74
2022-12-23T23:23:40.862Z,76.75
2022-12-23T23:26:10.131Z,75.51
2022-12-23T23:28:37.496Z,75.30
2022-12-23T23:31:39.708Z,74.85
2022-12-23T23:33:50.136Z,73.65
2022-12-23T23:36:16.533Z,72.69
2022-12-23T23:38:42.848Z,72.62
2022-12-23T23:41:09.204Z,71.26
2022-12-23T23:43:35.541Z,71.21
2022-12-23T23:46:01.970Z,70.77
2022-12-23T23:48:28.397Z,71.17
2022-12-23T23:51:04.625Z,70.87
2022-12-23T23:53:30.946Z,70.80
2022-12-23T23:56:01.947Z,71.14
2022-12-23T23:58:28.199Z,71.87
